Time;durP1;ratioP1;P1;durP2;ratioP2;P2;SDS_P1;SDS_P2;PMS_P1;PMS_P2;Temp;Humidity;BMP_temperature;BMP_pressure;BME280_temperature;BME280_humidity;BME280_pressure;Samples;Min_cycle;Max_cycle;Signal;HPM_P1;HPM_P2
2023/09/05 00:02:25;;;;;;;3.92;3.03;;;;;;;;;;5007848;28;20400;-73
2023/09/05 00:04:55;;;;;;;4.38;2.92;;;;;;;;;;4993593;28;20022;-73
2023/09/05 00:07:21;;;;;;;3.60;2.70;;;;;;;;;;4994503;28;20049;-73
2023/09/05 00:09:47;;;;;;;4.85;3.25;;;;;;;;;;4994086;28;20487;-73
2023/09/05 00:12:13;;;;;;;5.93;2.95;;;;;;;;;;4994395;28;20156;-73
2023/09/05 00:14:39;;;;;;;6.38;3.35;;;;;;;;;;4993689;28;20113;-73
2023/09/05 00:17:05;;;;;;;4.82;3.20;;;;;;;;;;4994604;28;20042;-73
2023/09/05 00:19:31;;;;;;;7.72;3.53;;;;;;;;;;4994558;28;20030;-73
2023/09/05 00:21:57;;;;;;;4.13;3.10;;;;;;;;;;4994633;28;20052;-72
2023/09/05 00:24:31;;;;;;;7.13;3.35;;;;;;;;;;4993152;28;20225;-73
2023/09/05 00:26:58;;;;;;;4.93;3.80;;;;;;;;;;4993498;28;20150;-72
2023/09/05 00:29:26;;;;;;;5.85;3.10;;;;;;;;;;5009521;28;20041;-72
2023/09/05 00:31:53;;;;;;;4.47;3.47;;;;;;;;;;4993003;28;20035;-71
2023/09/05 00:34:19;;;;;;;6.10;3.50;;;;;;;;;;5009148;28;20399;-71
2023/09/05 00:36:48;;;;;;;6.90;3.40;;;;;;;;;;4995692;28;20038;-73
2023/09/05 00:39:16;;;;;;;5.40;3.13;;;;;;;;;;4994257;28;20031;-71
2023/09/05 00:41:42;;;;;;;5.28;3.38;;;;;;;;;;4993055;28;20034;-71
2023/09/05 00:44:09;;;;;;;5.10;2.83;;;;;;;;;;4992997;28;20023;-71
2023/09/05 00:46:35;;;;;;;3.13;2.03;;;;;;;;;;4994235;28;20049;-71
2023/09/05 00:49:04;;;;;;;3.70;1.95;;;;;;;;;;4976892;28;20026;-72
2023/09/05 00:51:33;;;;;;;4.65;2.30;;;;;;;;;;4992503;28;20061;-73
2023/09/05 00:54:02;;;;;;;7.57;1.95;;;;;;;;;;4992482;28;20109;-72
2023/09/05 00:56:28;;;;;;;3.95;1.88;;;;;;;;;;4992608;28;20121;-73
2023/09/05 00:58:55;;;;;;;3.05;1.30;;;;;;;;;;4992844;28;20023;-73
2023/09/05 01:01:21;;;;;;;2.20;1.20;;;;;;;;;;4992359;28;20061;-70
2023/09/05 01:03:47;;;;;;;1.52;0.93;;;;;;;;;;5010036;28;20064;-73
2023/09/05 01:06:26;;;;;;;1.17;1.00;;;;;;;;;;5028681;28;20060;-73
2023/09/05 01:09:01;;;;;;;2.33;1.00;;;;;;;;;;5013662;28;20034;-72
2023/09/05 01:11:28;;;;;;;2.08;0.90;;;;;;;;;;5013225;28;20070;-72
2023/09/05 01:13:53;;;;;;;1.55;1.10;;;;;;;;;;5012953;28;20050;-73
2023/09/05 01:16:19;;;;;;;4.80;1.48;;;;;;;;;;5011988;28;20506;-74
2023/09/05 01:18:46;;;;;;;2.03;1.13;;;;;;;;;;5012960;28;20025;-73
2023/09/05 01:21:31;;;;;;;2.72;1.17;;;;;;;;;;5028277;28;20041;-73
2023/09/05 01:24:17;;;;;;;2.00;1.20;;;;;;;;;;5012087;28;20030;-74
2023/09/05 01:26:44;;;;;;;2.60;1.33;;;;;;;;;;5012833;28;20077;-72
2023/09/05 01:29:11;;;;;;;2.28;1.20;;;;;;;;;;5011696;28;20036;-72
2023/09/05 01:31:38;;;;;;;2.88;1.40;;;;;;;;;;5027777;28;20038;-74
2023/09/05 01:34:05;;;;;;;3.78;1.42;;;;;;;;;;5028900;28;20065;-74
2023/09/05 01:36:31;;;;;;;3.05;1.42;;;;;;;;;;5014794;28;20030;-73
2023/09/05 01:38:57;;;;;;;3.50;1.90;;;;;;;;;;5027098;28;20026;-74
2023/09/05 01:41:23;;;;;;;3.05;1.85;;;;;;;;;;4998563;28;20038;-74
2023/09/05 01:43:49;;;;;;;3.55;1.60;;;;;;;;;;4990680;28;20476;-73
2023/09/05 01:46:16;;;;;;;2.13;1.45;;;;;;;;;;5002724;28;20519;-73
2023/09/05 01:48:41;;;;;;;5.03;1.95;;;;;;;;;;4992097;28;20038;-73
2023/09/05 01:51:09;;;;;;;3.15;1.63;;;;;;;;;;4992509;28;20140;-73
2023/09/05 01:53:35;;;;;;;3.03;1.98;;;;;;;;;;4992303;28;20045;-72
2023/09/05 01:56:01;;;;;;;2.75;1.88;;;;;;;;;;5002060;28;20037;-73
2023/09/05 01:58:26;;;;;;;5.90;2.30;;;;;;;;;;5010628;28;20156;-73
2023/09/05 02:00:52;;;;;;;3.97;2.50;;;;;;;;;;5026909;28;20034;-72
2023/09/05 02:03:18;;;;;;;4.28;2.60;;;;;;;;;;5011457;28;20048;-72
2023/09/05 02:05:44;;;;;;;5.82;2.45;;;;;;;;;;5010011;28;20048;-71
2023/09/05 02:08:11;;;;;;;7.60;3.03;;;;;;;;;;5011616;28;20395;-72
2023/09/05 02:10:37;;;;;;;4.82;2.45;;;;;;;;;;5010526;28;20030;-71
2023/09/05 02:13:03;;;;;;;4.07;2.63;;;;;;;;;;5008156;28;20402;-72
2023/09/05 02:15:29;;;;;;;5.63;3.17;;;;;;;;;;5010557;28;20037;-71
2023/09/05 02:17:56;;;;;;;4.85;3.10;;;;;;;;;;5011301;28;20025;-73
2023/09/05 02:20:27;;;;;;;6.50;2.92;;;;;;;;;;5012570;28;20030;-71
2023/09/05 02:22:52;;;;;;;5.28;3.08;;;;;;;;;;5011817;28;20038;-72
2023/09/05 02:25:18;;;;;;;5.43;3.40;;;;;;;;;;5010911;28;20040;-71
2023/09/05 02:27:44;;;;;;;5.70;3.50;;;;;;;;;;4997086;28;20614;-73
2023/09/05 02:30:10;;;;;;;4.80;3.08;;;;;;;;;;4990882;28;20030;-72
2023/09/05 02:32:38;;;;;;;6.35;3.17;;;;;;;;;;4990090;28;20064;-72
2023/09/05 02:35:05;;;;;;;6.50;2.63;;;;;;;;;;4990324;28;20070;-71
2023/09/05 02:37:31;;;;;;;3.85;3.08;;;;;;;;;;4991913;28;20030;-72
2023/09/05 02:39:59;;;;;;;6.25;3.15;;;;;;;;;;4991952;28;20031;-72
2023/09/05 02:42:25;;;;;;;5.60;3.28;;;;;;;;;;5000466;28;20029;-71
2023/09/05 02:44:53;;;;;;;6.10;3.95;;;;;;;;;;5011354;28;20083;-72
2023/09/05 02:47:19;;;;;;;6.93;4.35;;;;;;;;;;5006700;28;20038;-72
2023/09/05 02:49:45;;;;;;;8.65;4.38;;;;;;;;;;4990426;28;20175;-72
2023/09/05 02:52:12;;;;;;;6.30;4.13;;;;;;;;;;4991932;28;20447;-71
2023/09/05 02:54:37;;;;;;;6.18;4.35;;;;;;;;;;4990865;28;20428;-73
2023/09/05 02:57:03;;;;;;;6.55;4.50;;;;;;;;;;4990803;28;20050;-71
2023/09/05 02:59:29;;;;;;;8.70;4.40;;;;;;;;;;4991374;28;20161;-72
2023/09/05 03:01:55;;;;;;;7.07;4.32;;;;;;;;;;4992622;28;20042;-72
2023/09/05 03:04:21;;;;;;;7.03;4.65;;;;;;;;;;4992552;28;20109;-72
2023/09/05 03:06:47;;;;;;;6.88;4.50;;;;;;;;;;4991044;28;20408;-72
2023/09/05 03:09:13;;;;;;;7.43;4.78;;;;;;;;;;4990347;28;20066;-72
2023/09/05 03:11:39;;;;;;;9.13;5.15;;;;;;;;;;4991414;28;20102;-73
2023/09/05 03:14:06;;;;;;;9.02;4.85;;;;;;;;;;4989489;28;20060;-72
2023/09/05 03:16:32;;;;;;;8.48;5.20;;;;;;;;;;5006660;28;20042;-73
2023/09/05 03:18:59;;;;;;;7.53;4.82;;;;;;;;;;5004547;28;20037;-72
2023/09/05 03:21:26;;;;;;;9.18;5.72;;;;;;;;;;5001928;28;20034;-72
2023/09/05 03:23:52;;;;;;;7.90;5.80;;;;;;;;;;4994125;28;20116;-72
2023/09/05 03:26:18;;;;;;;10.27;6.45;;;;;;;;;;4993802;28;20046;-72
2023/09/05 03:28:45;;;;;;;9.25;6.35;;;;;;;;;;5008408;28;20431;-72
2023/09/05 03:31:15;;;;;;;8.32;6.15;;;;;;;;;;5002490;28;20519;-73
2023/09/05 03:33:41;;;;;;;7.88;5.40;;;;;;;;;;4994829;28;20032;-73
2023/09/05 03:36:09;;;;;;;7.45;4.65;;;;;;;;;;4993817;28;20124;-75
2023/09/05 03:38:35;;;;;;;6.18;3.95;;;;;;;;;;4994251;28;20033;-76
2023/09/05 03:41:01;;;;;;;6.72;4.43;;;;;;;;;;5009708;28;20023;-74
2023/09/05 03:43:26;;;;;;;12.05;5.28;;;;;;;;;;4976724;28;20030;-73
2023/09/05 03:45:53;;;;;;;7.32;4.60;;;;;;;;;;5009685;28;20510;-72
2023/09/05 03:48:20;;;;;;;8.32;6.10;;;;;;;;;;4995099;28;20410;-74
2023/09/05 03:50:46;;;;;;;8.52;5.45;;;;;;;;;;4994781;28;20443;-72
2023/09/05 03:53:12;;;;;;;8.20;5.55;;;;;;;;;;5010262;28;20113;-73
2023/09/05 03:55:38;;;;;;;10.77;5.13;;;;;;;;;;5029479;28;20068;-72
2023/09/05 03:58:05;;;;;;;8.38;4.55;;;;;;;;;;5014422;28;20022;-73
2023/09/05 04:00:35;;;;;;;11.15;5.18;;;;;;;;;;5011642;28;20034;-73
2023/09/05 04:03:02;;;;;;;6.35;4.47;;;;;;;;;;4998239;28;20030;-73
2023/09/05 04:05:29;;;;;;;6.85;3.65;;;;;;;;;;4994991;28;20503;-74
2023/09/05 04:07:55;;;;;;;6.80;4.50;;;;;;;;;;5009758;28;20104;-73
2023/09/05 04:10:22;;;;;;;7.05;3.80;;;;;;;;;;4995581;28;20065;-73
2023/09/05 04:12:50;;;;;;;5.93;3.47;;;;;;;;;;4996841;28;20109;-72
2023/09/05 04:15:21;;;;;;;5.72;3.20;;;;;;;;;;4996693;28;20038;-73
2023/09/05 04:17:48;;;;;;;4.55;3.63;;;;;;;;;;5008983;28;20034;-72
2023/09/05 04:20:14;;;;;;;7.28;3.53;;;;;;;;;;5021885;28;20037;-73
2023/09/05 04:22:40;;;;;;;7.30;3.35;;;;;;;;;;5024807;28;20032;-73
2023/09/05 04:25:06;;;;;;;6.65;3.15;;;;;;;;;;4998492;28;20029;-72
2023/09/05 04:27:33;;;;;;;4.28;2.60;;;;;;;;;;5025453;28;20044;-72
2023/09/05 04:29:59;;;;;;;5.95;3.20;;;;;;;;;;5023853;28;20025;-72
2023/09/05 04:32:34;;;;;;;3.28;2.30;;;;;;;;;;5022439;28;20388;-73
2023/09/05 04:35:02;;;;;;;4.25;2.72;;;;;;;;;;5020655;28;20448;-73
2023/09/05 04:37:28;;;;;;;3.83;2.70;;;;;;;;;;5020538;28;20045;-73
2023/09/05 04:40:00;;;;;;;4.00;2.80;;;;;;;;;;5017040;28;20033;-74
2023/09/05 04:42:27;;;;;;;4.03;2.83;;;;;;;;;;5011315;28;20033;-73
2023/09/05 04:44:53;;;;;;;6.68;2.72;;;;;;;;;;5015385;28;20199;-73
2023/09/05 04:47:20;;;;;;;4.57;2.42;;;;;;;;;;5021745;28;20038;-74
2023/09/05 04:49:48;;;;;;;5.47;2.92;;;;;;;;;;5019379;28;20030;-74
2023/09/05 04:52:16;;;;;;;6.80;3.17;;;;;;;;;;5022303;28;20095;-73
2023/09/05 04:54:45;;;;;;;4.35;2.53;;;;;;;;;;5011959;28;20075;-74
2023/09/05 04:57:13;;;;;;;4.60;2.53;;;;;;;;;;5021630;28;20168;-72
2023/09/05 04:59:40;;;;;;;5.13;2.90;;;;;;;;;;5023448;28;20036;-74
2023/09/05 05:02:07;;;;;;;5.50;2.90;;;;;;;;;;5024618;28;20124;-73
2023/09/05 05:04:34;;;;;;;4.57;2.70;;;;;;;;;;5021437;28;20030;-74
2023/09/05 05:07:00;;;;;;;10.50;3.35;;;;;;;;;;5015702;28;20494;-73
2023/09/05 05:09:25;;;;;;;6.88;3.53;;;;;;;;;;5021131;28;20022;-73
2023/09/05 05:11:52;;;;;;;7.32;3.60;;;;;;;;;;5018421;28;20044;-72
2023/09/05 05:14:17;;;;;;;7.75;4.13;;;;;;;;;;5016067;28;20140;-72
2023/09/05 05:16:43;;;;;;;7.13;4.22;;;;;;;;;;5023051;28;20030;-73
2023/09/05 05:19:12;;;;;;;7.75;3.75;;;;;;;;;;5023984;28;20051;-73
2023/09/05 05:21:38;;;;;;;6.65;3.60;;;;;;;;;;5020755;28;20034;-73
2023/09/05 05:24:08;;;;;;;7.85;4.00;;;;;;;;;;5020934;28;20018;-72
2023/09/05 05:26:33;;;;;;;8.43;4.18;;;;;;;;;;5016467;28;20022;-73
2023/09/05 05:28:59;;;;;;;7.07;3.25;;;;;;;;;;5000401;28;20395;-72
2023/09/05 05:31:26;;;;;;;7.50;3.80;;;;;;;;;;5022955;28;20045;-72
2023/09/05 05:33:52;;;;;;;7.43;3.20;;;;;;;;;;5030891;28;20049;-73
2023/09/05 05:36:18;;;;;;;5.80;3.00;;;;;;;;;;5013213;28;20488;-73
2023/09/05 05:38:44;;;;;;;7.10;3.53;;;;;;;;;;5019060;28;20062;-74
2023/09/05 05:41:10;;;;;;;5.43;3.08;;;;;;;;;;5016403;28;20036;-73
2023/09/05 05:43:36;;;;;;;8.60;3.58;;;;;;;;;;5004733;28;20026;-73
2023/09/05 05:46:02;;;;;;;7.30;3.78;;;;;;;;;;5022871;28;20037;-73
2023/09/05 05:48:28;;;;;;;8.93;4.53;;;;;;;;;;5020074;28;20025;-72
2023/09/05 05:50:57;;;;;;;5.63;3.38;;;;;;;;;;5014584;28;20469;-71
2023/09/05 05:53:24;;;;;;;9.02;3.67;;;;;;;;;;4992963;28;20322;-73
2023/09/05 05:55:50;;;;;;;7.07;3.53;;;;;;;;;;5017636;28;20022;-73
2023/09/05 05:58:16;;;;;;;5.50;3.38;;;;;;;;;;5003126;28;20058;-73
2023/09/05 06:00:50;;;;;;;6.93;3.22;;;;;;;;;;5009288;28;20115;-73
2023/09/05 06:03:20;;;;;;;5.32;2.60;;;;;;;;;;5019758;28;20047;-72
2023/09/05 06:05:47;;;;;;;7.45;3.03;;;;;;;;;;5009748;28;20120;-74
2023/09/05 06:08:13;;;;;;;6.07;3.00;;;;;;;;;;5011553;28;20109;-75
2023/09/05 06:10:39;;;;;;;8.65;3.05;;;;;;;;;;5011855;28;20038;-75
2023/09/05 06:13:05;;;;;;;6.60;3.00;;;;;;;;;;5018075;28;20026;-75
2023/09/05 06:15:32;;;;;;;6.88;3.25;;;;;;;;;;5018638;28;20071;-75
2023/09/05 06:17:59;;;;;;;4.70;2.47;;;;;;;;;;5006140;28;20026;-75
2023/09/05 06:20:28;;;;;;;6.25;2.60;;;;;;;;;;5018024;28;20033;-75
2023/09/05 06:22:54;;;;;;;6.53;2.65;;;;;;;;;;5005464;28;20068;-75
2023/09/05 06:25:21;;;;;;;5.50;2.40;;;;;;;;;;5020248;28;20091;-75
2023/09/05 06:27:47;;;;;;;4.85;2.92;;;;;;;;;;5015667;28;20025;-74
2023/09/05 06:30:14;;;;;;;7.70;3.10;;;;;;;;;;5020406;28;20049;-74
2023/09/05 06:32:40;;;;;;;6.00;2.78;;;;;;;;;;5011275;28;20029;-77
2023/09/05 06:35:06;;;;;;;4.70;2.75;;;;;;;;;;5018308;28;20391;-75
2023/09/05 06:37:35;;;;;;;5.50;2.80;;;;;;;;;;5004417;28;20101;-75
2023/09/05 06:40:05;;;;;;;6.15;2.83;;;;;;;;;;5017319;28;20037;-75
2023/09/05 06:42:31;;;;;;;6.38;2.83;;;;;;;;;;5012058;28;20476;-74
2023/09/05 06:44:58;;;;;;;6.75;2.95;;;;;;;;;;5019021;28;20029;-75
2023/09/05 06:47:24;;;;;;;4.47;2.60;;;;;;;;;;5022585;28;20030;-75
2023/09/05 06:49:49;;;;;;;4.05;2.45;;;;;;;;;;5001555;28;20042;-77
2023/09/05 06:52:15;;;;;;;4.20;2.08;;;;;;;;;;5018525;28;20034;-76
2023/09/05 06:54:41;;;;;;;3.67;2.20;;;;;;;;;;5030407;28;20080;-76
2023/09/05 06:57:08;;;;;;;5.65;2.78;;;;;;;;;;5015510;28;20022;-76
2023/09/05 06:59:35;;;;;;;5.75;2.67;;;;;;;;;;5009941;28;20586;-75
2023/09/05 07:02:02;;;;;;;7.97;3.28;;;;;;;;;;5016327;28;20029;-76
2023/09/05 07:04:31;;;;;;;4.65;2.58;;;;;;;;;;5006252;28;20100;-78
2023/09/05 07:07:00;;;;;;;4.95;3.00;;;;;;;;;;5006586;28;20037;-77
2023/09/05 07:09:26;;;;;;;4.07;2.00;;;;;;;;;;5008936;28;20119;-77
2023/09/05 07:11:51;;;;;;;3.03;1.65;;;;;;;;;;4988230;28;20373;-76
2023/09/05 07:14:18;;;;;;;3.95;2.00;;;;;;;;;;5008740;28;20483;-79
2023/09/05 07:16:43;;;;;;;3.95;2.17;;;;;;;;;;5019484;28;20036;-77
2023/09/05 07:19:09;;;;;;;2.88;1.60;;;;;;;;;;5019069;28;20471;-78
2023/09/05 07:21:37;;;;;;;4.38;2.15;;;;;;;;;;5018538;28;20100;-74
2023/09/05 07:24:03;;;;;;;5.28;2.90;;;;;;;;;;5017627;28;20125;-76
2023/09/05 07:26:29;;;;;;;4.70;2.55;;;;;;;;;;5018554;28;20129;-74
2023/09/05 07:28:55;;;;;;;3.53;2.13;;;;;;;;;;5016901;28;20221;-75
2023/09/05 07:31:22;;;;;;;7.10;2.05;;;;;;;;;;5016365;28;20034;-75
2023/09/05 07:33:47;;;;;;;4.47;1.70;;;;;;;;;;5019970;28;20033;-74
2023/09/05 07:36:13;;;;;;;5.57;2.53;;;;;;;;;;5026599;28;20379;-72
2023/09/05 07:38:39;;;;;;;4.03;1.90;;;;;;;;;;5021429;28;20041;-75
2023/09/05 07:41:07;;;;;;;6.15;2.10;;;;;;;;;;5029826;28;20060;-73
2023/09/05 07:43:33;;;;;;;6.20;2.20;;;;;;;;;;5031214;28;20033;-72
2023/09/05 07:45:59;;;;;;;2.92;1.42;;;;;;;;;;5030983;28;20036;-72
2023/09/05 07:48:25;;;;;;;3.20;1.92;;;;;;;;;;5013970;28;20033;-74
2023/09/05 07:50:51;;;;;;;4.57;2.50;;;;;;;;;;5018880;28;20022;-72
2023/09/05 07:53:18;;;;;;;4.63;2.33;;;;;;;;;;5005604;28;20060;-72
2023/09/05 07:55:44;;;;;;;2.55;1.42;;;;;;;;;;5019181;28;20037;-74
2023/09/05 07:58:10;;;;;;;4.43;2.10;;;;;;;;;;4999792;28;20093;-74
2023/09/05 08:00:36;;;;;;;4.68;1.88;;;;;;;;;;4991012;28;20030;-73
2023/09/05 08:03:03;;;;;;;3.10;1.83;;;;;;;;;;4990435;28;20501;-72
2023/09/05 08:05:29;;;;;;;2.58;1.70;;;;;;;;;;5003087;28;20033;-73
2023/09/05 08:07:55;;;;;;;3.67;2.13;;;;;;;;;;5015055;28;20052;-72
2023/09/05 08:10:20;;;;;;;3.75;2.35;;;;;;;;;;5013403;28;20369;-73
2023/09/05 08:12:46;;;;;;;3.15;1.50;;;;;;;;;;5013961;28;20472;-74
2023/09/05 08:15:12;;;;;;;2.28;1.50;;;;;;;;;;5016090;28;20034;-73
2023/09/05 08:17:38;;;;;;;2.47;1.30;;;;;;;;;;5016890;28;20041;-74
2023/09/05 08:20:04;;;;;;;3.45;1.60;;;;;;;;;;5014951;28;20030;-74
2023/09/05 08:22:31;;;;;;;3.33;1.60;;;;;;;;;;5012622;28;20400;-72
2023/09/05 08:31:25;;;;;;;5.68;2.08;;;;;;;;;;5019853;28;20091;-70
2023/09/05 08:38:18;;;;;;;5.15;2.90;;;;;;;;;;5012511;28;20077;-71
2023/09/05 08:44:37;;;;;;;8.25;3.22;;;;;;;;;;5027437;28;20406;-72
2023/09/05 08:47:03;;;;;;;5.85;2.63;;;;;;;;;;5030741;28;20044;-71
2023/09/05 08:53:19;;;;;;;4.53;2.30;;;;;;;;;;5026758;28;20048;-72
2023/09/05 08:55:45;;;;;;;3.92;2.25;;;;;;;;;;5032650;28;20057;-73
2023/09/05 08:58:16;;;;;;;5.60;2.50;;;;;;;;;;5032539;28;20037;-72
2023/09/05 09:00:45;;;;;;;4.13;2.00;;;;;;;;;;5032906;28;20053;-73
2023/09/05 09:03:11;;;;;;;4.22;2.63;;;;;;;;;;5032198;28;20156;-74
2023/09/05 09:05:37;;;;;;;4.07;2.25;;;;;;;;;;5032722;28;20068;-73
2023/09/05 09:08:03;;;;;;;3.55;1.90;;;;;;;;;;5033788;28;20387;-72
2023/09/05 09:10:29;;;;;;;2.85;2.00;;;;;;;;;;5031193;28;20038;-73
2023/09/05 09:13:14;;;;;;;4.03;2.72;;;;;;;;;;5031322;28;20024;-74
2023/09/05 09:15:43;;;;;;;5.25;3.65;;;;;;;;;;5032393;28;20234;-71
2023/09/05 09:18:13;;;;;;;5.95;2.70;;;;;;;;;;5031062;28;20030;-73
2023/09/05 09:20:45;;;;;;;7.97;3.00;;;;;;;;;;5031937;28;20030;-73
2023/09/05 09:23:11;;;;;;;5.33;3.07;;;;;;;;;;5031295;28;20029;-73
2023/09/05 09:25:47;;;;;;;6.63;3.90;;;;;;;;;;5032617;28;20037;-73
2023/09/05 09:28:26;;;;;;;7.22;4.75;;;;;;;;;;5023991;28;20466;-72
2023/09/05 09:30:59;;;;;;;6.70;3.92;;;;;;;;;;5028439;28;20076;-72
2023/09/05 09:33:25;;;;;;;;;;;;;;;;;;5032595;28;20033;-75
2023/09/05 09:36:00;;;;;;;6.10;3.95;;;;;;;;;;5031914;28;20314;-74
2023/09/05 09:38:27;;;;;;;6.63;3.90;;;;;;;;;;5031737;28;20060;-73
2023/09/05 09:40:52;;;;;;;7.55;4.65;;;;;;;;;;5031643;28;20514;-72
2023/09/05 09:43:18;;;;;;;9.27;5.50;;;;;;;;;;5030966;28;20052;-73
2023/09/05 09:45:44;;;;;;;6.97;4.57;;;;;;;;;;5030710;28;20025;-72
2023/09/05 09:48:16;;;;;;;8.15;5.63;;;;;;;;;;5023056;28;20107;-73
2023/09/05 09:54:55;;;;;;;10.38;6.80;;;;;;;;;;5026672;28;20044;-74
2023/09/05 09:57:38;;;;;;;7.72;5.15;;;;;;;;;;5026758;28;20044;-72
2023/09/05 10:00:15;;;;;;;8.30;6.13;;;;;;;;;;5030109;28;20457;-72
2023/09/05 10:02:43;;;;;;;9.52;6.20;;;;;;;;;;5030939;28;20765;-71
2023/09/05 10:05:11;;;;;;;10.27;6.63;;;;;;;;;;5031676;28;20458;-74
2023/09/05 10:07:38;;;;;;;9.25;5.93;;;;;;;;;;5031399;28;20045;-72
2023/09/05 10:10:05;;;;;;;8.35;5.10;;;;;;;;;;5031628;28;20029;-72
2023/09/05 10:12:31;;;;;;;8.80;5.60;;;;;;;;;;5029495;28;20566;-74
2023/09/05 10:15:02;;;;;;;7.93;5.15;;;;;;;;;;5029448;28;20021;-74
2023/09/05 10:17:31;;;;;;;5.93;4.40;;;;;;;;;;5033646;28;20048;-74
2023/09/05 10:19:57;;;;;;;6.78;4.45;;;;;;;;;;5029294;28;20026;-72
2023/09/05 10:22:24;;;;;;;8.23;5.30;;;;;;;;;;5029918;28;20123;-72
2023/09/05 10:24:51;;;;;;;8.45;5.68;;;;;;;;;;5030948;28;20032;-76
2023/09/05 10:27:17;;;;;;;6.85;5.07;;;;;;;;;;5030681;28;20100;-73
2023/09/05 10:29:48;;;;;;;10.35;5.78;;;;;;;;;;5030598;28;20021;-74
2023/09/05 10:32:18;;;;;;;11.10;6.10;;;;;;;;;;5029842;28;20033;-72
2023/09/05 10:34:47;;;;;;;23.48;8.55;;;;;;;;;;5031113;28;20033;-72
2023/09/05 10:37:26;;;;;;;8.32;5.45;;;;;;;;;;5030994;28;20036;-72
2023/09/05 10:39:55;;;;;;;9.32;5.28;;;;;;;;;;5030736;28;20383;-73
2023/09/05 10:42:31;;;;;;;7.72;5.18;;;;;;;;;;5045428;28;20021;-73
2023/09/05 10:45:22;;;;;;;6.60;4.90;;;;;;;;;;5031572;28;20056;-73
2023/09/05 10:47:49;;;;;;;9.13;5.22;;;;;;;;;;5030714;28;20504;-72
2023/09/05 10:50:19;;;;;;;6.40;4.55;;;;;;;;;;5030419;28;20033;-73
2023/09/05 10:53:06;;;;;;;6.90;4.95;;;;;;;;;;5030539;28;20095;-73
2023/09/05 10:55:39;;;;;;;7.07;3.92;;;;;;;;;;5025088;28;20073;-72
2023/09/05 10:58:25;;;;;;;;;;;;;;;;;;5030489;28;20041;-73
2023/09/05 11:00:51;;;;;;;4.75;3.42;;;;;;;;;;5023755;28;20382;-73
2023/09/05 11:03:17;;;;;;;6.00;4.13;;;;;;;;;;5047503;28;20060;-73
2023/09/05 11:05:45;;;;;;;6.45;3.92;;;;;;;;;;5029028;28;20437;-73
2023/09/05 11:08:23;;;;;;;6.25;4.18;;;;;;;;;;5028928;28;20041;-72
2023/09/05 11:10:55;;;;;;;5.78;3.97;;;;;;;;;;5028550;28;20048;-72
2023/09/05 11:13:21;;;;;;;8.02;4.28;;;;;;;;;;5030015;28;20037;-73
2023/09/05 11:15:46;;;;;;;9.18;3.97;;;;;;;;;;5030064;28;20025;-73
2023/09/05 11:18:17;;;;;;;5.78;4.15;;;;;;;;;;5029786;28;20391;-73
2023/09/05 11:20:45;;;;;;;6.53;4.38;;;;;;;;;;5030937;28;20033;-70
2023/09/05 11:23:18;;;;;;;6.88;4.18;;;;;;;;;;5028419;28;20052;-73
2023/09/05 11:25:46;;;;;;;6.83;4.43;;;;;;;;;;5028899;28;20510;-73
2023/09/05 11:28:12;;;;;;;9.50;5.10;;;;;;;;;;5029606;28;20032;-74
2023/09/05 11:30:43;;;;;;;8.95;5.32;;;;;;;;;;5028104;28;20095;-73
2023/09/05 11:33:10;;;;;;;8.48;5.07;;;;;;;;;;4997360;28;20038;-74
2023/09/05 11:35:48;;;;;;;8.15;4.90;;;;;;;;;;5029532;28;20043;-73
2023/09/05 11:38:14;;;;;;;6.07;3.75;;;;;;;;;;5030984;28;20063;-73
2023/09/05 11:40:49;;;;;;;4.80;3.22;;;;;;;;;;5034367;28;20116;-74
2023/09/05 11:43:15;;;;;;;6.53;3.28;;;;;;;;;;5034271;28;20064;-73
2023/09/05 11:45:43;;;;;;;5.07;3.38;;;;;;;;;;5034386;28;20417;-74
2023/09/05 11:48:14;;;;;;;6.32;3.38;;;;;;;;;;5034855;28;20124;-73
2023/09/05 11:50:42;;;;;;;4.00;3.05;;;;;;;;;;5035084;28;20482;-74
2023/09/05 11:53:11;;;;;;;6.30;3.80;;;;;;;;;;5034448;28;20044;-72
2023/09/05 11:55:38;;;;;;;6.25;3.20;;;;;;;;;;5034990;28;20048;-75
2023/09/05 11:58:05;;;;;;;5.63;3.60;;;;;;;;;;5034276;28;20017;-74
2023/09/05 12:00:32;;;;;;;6.03;3.05;;;;;;;;;;5034570;28;20033;-75
2023/09/05 12:03:02;;;;;;;7.03;3.70;;;;;;;;;;5025835;28;20475;-74
2023/09/05 12:05:37;;;;;;;5.60;3.03;;;;;;;;;;5034587;28;20033;-72
2023/09/05 12:08:05;;;;;;;5.28;3.00;;;;;;;;;;5026636;28;20033;-73
2023/09/05 12:10:40;;;;;;;6.93;3.42;;;;;;;;;;5034639;28;20025;-74
2023/09/05 12:13:06;;;;;;;11.25;3.75;;;;;;;;;;5027428;28;20490;-74
2023/09/05 12:15:34;;;;;;;8.90;4.03;;;;;;;;;;5034322;28;20076;-73
2023/09/05 12:18:04;;;;;;;9.57;4.63;;;;;;;;;;5013573;28;20045;-72
2023/09/05 12:20:33;;;;;;;5.70;3.47;;;;;;;;;;5046640;28;20022;-74
2023/09/05 12:23:02;;;;;;;8.50;4.25;;;;;;;;;;5013060;28;20163;-73
2023/09/05 12:25:28;;;;;;;6.65;4.20;;;;;;;;;;5014394;28;20049;-74
2023/09/05 12:28:14;;;;;;;9.50;3.80;;;;;;;;;;5014627;28;20033;-74
2023/09/05 12:30:40;;;;;;;6.28;3.30;;;;;;;;;;5013984;28;20038;-72
2023/09/05 12:33:06;;;;;;;8.32;4.00;;;;;;;;;;5013660;28;20041;-72
2023/09/05 12:35:32;;;;;;;5.50;3.63;;;;;;;;;;5013714;28;20037;-72
2023/09/05 12:38:00;;;;;;;7.20;3.67;;;;;;;;;;5014149;28;20344;-72
2023/09/05 12:40:26;;;;;;;5.60;3.20;;;;;;;;;;5027436;28;20119;-72
2023/09/05 12:42:52;;;;;;;6.20;3.72;;;;;;;;;;5033983;28;20098;-72
2023/09/05 12:45:19;;;;;;;4.93;3.67;;;;;;;;;;5033877;28;20037;-72
2023/09/05 12:47:51;;;;;;;4.78;3.10;;;;;;;;;;5033955;28;20052;-72
2023/09/05 12:50:36;;;;;;;4.45;3.20;;;;;;;;;;5033438;28;20041;-73
2023/09/05 12:53:02;;;;;;;4.75;3.35;;;;;;;;;;5033724;28;20048;-73
2023/09/05 12:55:32;;;;;;;5.32;3.47;;;;;;;;;;5032213;28;20386;-72
2023/09/05 12:58:00;;;;;;;5.03;3.33;;;;;;;;;;5015579;28;20041;-73
2023/09/05 13:00:25;;;;;;;5.47;3.40;;;;;;;;;;5033023;28;20025;-73
2023/09/05 13:02:51;;;;;;;7.13;3.80;;;;;;;;;;5033207;28;20354;-74
2023/09/05 13:05:18;;;;;;;6.30;4.05;;;;;;;;;;5033215;28;20032;-72
2023/09/05 13:07:44;;;;;;;10.57;4.40;;;;;;;;;;5033022;28;20026;-74
2023/09/05 13:10:11;;;;;;;6.68;4.28;;;;;;;;;;5033303;28;20025;-73
2023/09/05 13:12:37;;;;;;;6.07;4.20;;;;;;;;;;5032662;28;20048;-75
2023/09/05 13:15:06;;;;;;;7.95;4.32;;;;;;;;;;5033120;28;20021;-74
2023/09/05 13:17:32;;;;;;;5.95;3.60;;;;;;;;;;5032993;28;20446;-73
2023/09/05 13:19:57;;;;;;;6.30;3.72;;;;;;;;;;5047846;28;20029;-73
2023/09/05 13:22:24;;;;;;;6.78;4.00;;;;;;;;;;5032568;28;20414;-74
2023/09/05 13:24:49;;;;;;;6.07;3.67;;;;;;;;;;5023153;28;20036;-72
2023/09/05 13:27:15;;;;;;;9.27;4.47;;;;;;;;;;5023178;28;20041;-73
2023/09/05 13:29:41;;;;;;;7.63;4.72;;;;;;;;;;5032702;28;20033;-72
2023/09/05 13:32:08;;;;;;;5.82;4.32;;;;;;;;;;5031499;28;20033;-71
2023/09/05 13:34:34;;;;;;;7.00;3.80;;;;;;;;;;5047418;28;20766;-71
2023/09/05 13:37:01;;;;;;;6.07;4.00;;;;;;;;;;5032676;28;20116;-72
2023/09/05 13:39:28;;;;;;;6.65;4.18;;;;;;;;;;5046516;28;20037;-70
2023/09/05 13:41:54;;;;;;;6.60;3.88;;;;;;;;;;5031818;28;20548;-72
2023/09/05 13:44:20;;;;;;;6.60;4.53;;;;;;;;;;5031489;28;20025;-72
2023/09/05 13:46:47;;;;;;;7.72;4.20;;;;;;;;;;5031678;28;20057;-72
2023/09/05 13:49:13;;;;;;;5.93;4.40;;;;;;;;;;5026637;28;20064;-72
2023/09/05 13:51:39;;;;;;;5.88;4.05;;;;;;;;;;5023000;28;20044;-71
2023/09/05 13:54:08;;;;;;;6.15;4.30;;;;;;;;;;5027132;28;20021;-73
2023/09/05 13:56:33;;;;;;;7.70;4.53;;;;;;;;;;5028985;28;20113;-71
2023/09/05 13:58:59;;;;;;;7.85;4.97;;;;;;;;;;5031879;28;20490;-72
2023/09/05 14:01:25;;;;;;;5.45;3.90;;;;;;;;;;5020835;28;20038;-73
2023/09/05 14:03:51;;;;;;;8.02;4.80;;;;;;;;;;5012426;28;20052;-72
2023/09/05 14:06:16;;;;;;;9.88;5.07;;;;;;;;;;5017995;28;20120;-72
2023/09/05 14:08:42;;;;;;;8.13;4.63;;;;;;;;;;5011983;28;20498;-72
2023/09/05 14:11:09;;;;;;;7.20;4.93;;;;;;;;;;5012039;28;20103;-72
2023/09/05 14:13:35;;;;;;;8.20;5.07;;;;;;;;;;5028168;28;20053;-72
2023/09/05 14:16:02;;;;;;;9.48;5.22;;;;;;;;;;5028353;28;20053;-72
2023/09/05 14:18:28;;;;;;;7.60;4.72;;;;;;;;;;5038961;28;20026;-72
2023/09/05 14:20:54;;;;;;;8.55;5.38;;;;;;;;;;5031542;28;20041;-72
2023/09/05 14:23:20;;;;;;;8.13;5.57;;;;;;;;;;5031157;28;20430;-71
2023/09/05 14:25:48;;;;;;;8.82;5.20;;;;;;;;;;5031604;28;20061;-72
2023/09/05 14:28:15;;;;;;;5.40;4.13;;;;;;;;;;5026401;28;20032;-71
2023/09/05 14:30:41;;;;;;;8.32;5.05;;;;;;;;;;5011389;28;20044;-72
2023/09/05 14:33:08;;;;;;;6.05;4.43;;;;;;;;;;5011517;28;20112;-71
2023/09/05 14:35:36;;;;;;;8.48;5.10;;;;;;;;;;5011630;28;20092;-74
2023/09/05 14:38:04;;;;;;;7.22;5.05;;;;;;;;;;5023475;28;20025;-73
2023/09/05 14:40:30;;;;;;;6.97;4.88;;;;;;;;;;5024012;28;20163;-73
2023/09/05 14:42:56;;;;;;;8.93;5.50;;;;;;;;;;5028979;28;20518;-72
2023/09/05 14:45:23;;;;;;;9.63;5.90;;;;;;;;;;5030955;28;20045;-71
2023/09/05 14:47:52;;;;;;;8.77;5.45;;;;;;;;;;5020808;28;20120;-70
2023/09/05 14:50:19;;;;;;;10.25;5.38;;;;;;;;;;5025154;28;20123;-71
2023/09/05 14:52:44;;;;;;;6.18;4.10;;;;;;;;;;5030649;28;20030;-72
2023/09/05 14:55:12;;;;;;;6.25;4.40;;;;;;;;;;5046223;28;20026;-72
2023/09/05 14:57:40;;;;;;;6.35;4.53;;;;;;;;;;5045727;28;20375;-72
2023/09/05 15:00:09;;;;;;;6.80;4.35;;;;;;;;;;5030659;28;20033;-73
2023/09/05 15:02:35;;;;;;;5.35;3.90;;;;;;;;;;5020648;28;20048;-72
2023/09/05 15:05:01;;;;;;;8.50;4.05;;;;;;;;;;5010580;28;20030;-73
2023/09/05 15:07:28;;;;;;;7.55;3.67;;;;;;;;;;5010659;28;20038;-72
2023/09/05 15:09:53;;;;;;;7.57;4.40;;;;;;;;;;5010061;28;20032;-72